Time;durP1;ratioP1;P1;durP2;ratioP2;P2;SDS_P1;SDS_P2;PMS_P1;PMS_P2;Temp;Humidity;BMP_temperature;BMP_pressure;BME280_temperature;BME280_humidity;BME280_pressure;Samples;Min_cycle;Max_cycle;Signal;HPM_P1;HPM_P2
2022/11/05 00:10:36;;;;;;;12.10;10.93;;;;;;;5.83;100.00;99855.52;1717234;81;21793;-63
2022/11/05 00:18:32;;;;;;;12.65;10.70;;;;;;;5.78;100.00;99858.23;1719849;80;21498;-63
2022/11/05 00:20:58;;;;;;;11.43;10.28;;;;;;;5.74;100.00;99855.25;1712100;81;21426;-63
2022/11/05 00:26:10;;;;;;;12.33;10.95;;;;;;;5.73;100.00;99861.38;1731574;80;21526;-63
2022/11/05 00:28:43;;;;;;;13.05;11.10;;;;;;;5.71;100.00;99859.23;1715832;80;21609;-63
2022/11/05 00:31:12;;;;;;;15.38;11.08;;;;;;;5.70;100.00;99857.50;1712629;81;21084;-63
2022/11/05 00:33:42;;;;;;;12.58;10.23;;;;;;;5.73;100.00;99865.73;1723283;81;21639;-63
2022/11/05 00:36:09;;;;;;;12.98;10.70;;;;;;;5.72;100.00;99864.85;1725451;80;21862;-63
2022/11/05 00:38:36;;;;;;;11.25;9.73;;;;;;;5.67;100.00;99866.72;1727455;80;21530;-63
2022/11/05 00:41:03;;;;;;;11.63;9.75;;;;;;;5.63;100.00;99861.12;1720202;80;21595;-64
2022/11/05 00:46:07;;;;;;;14.30;11.63;;;;;;;5.51;100.00;99858.30;1628685;86;21915;-63
2022/11/05 00:51:19;;;;;;;19.42;12.50;;;;;;;5.51;100.00;99862.67;1716044;80;21037;-63
2022/11/05 00:53:46;;;;;;;19.93;13.77;;;;;;;5.56;100.00;99854.33;1729470;80;21483;-64
2022/11/05 00:56:12;;;;;;;19.15;11.95;;;;;;;5.54;100.00;99869.11;1727580;80;21498;-63
2022/11/05 00:58:39;;;;;;;25.82;10.68;;;;;;;5.53;100.00;99878.70;1726727;80;21597;-63
2022/11/05 01:01:06;;;;;;;17.75;9.03;;;;;;;5.53;100.00;99898.70;1718864;81;21844;-63
2022/11/05 01:03:35;;;;;;;12.75;8.58;;;;;;;5.50;100.00;99903.97;1690387;82;21092;-63
2022/11/05 01:06:11;;;;;;;7.62;6.90;;;;;;;5.45;100.00;99906.67;1710296;82;21912;-64
2022/11/05 01:08:39;;;;;;;25.00;7.72;;;;;;;5.46;100.00;99902.73;1683829;82;21511;-66
2022/11/05 01:11:31;;;;;;;8.50;7.62;;;;;;;5.50;100.00;99898.33;1727296;80;20994;-64
2022/11/05 01:13:44;;;;;;;9.13;7.15;;;;;;;5.52;100.00;99891.76;1724051;81;21829;-64
2022/11/05 01:16:12;;;;;;;11.45;8.38;;;;;;;5.56;100.00;99888.23;1714890;80;21562;-64
2022/11/05 01:18:38;;;;;;;18.02;9.00;;;;;;;5.58;100.00;99886.00;1686158;84;21485;-64
2022/11/05 01:21:11;;;;;;;;;;;;;;;5.61;100.00;99886.37;1719834;81;21514;-63
2022/11/05 01:23:38;;;;;;;21.05;9.50;;;;;;;5.45;100.00;99874.08;1722284;81;20499;-63
2022/11/05 01:26:05;;;;;;;11.80;9.30;;;;;;;5.39;100.00;99878.95;1731665;80;21942;-67
2022/11/05 01:28:32;;;;;;;9.73;8.73;;;;;;;5.39;100.00;99876.80;1716372;80;21069;-64
2022/11/05 01:30:59;;;;;;;9.23;8.33;;;;;;;5.44;100.00;99871.03;1716425;80;21475;-63
2022/11/05 01:33:25;;;;;;;11.45;9.53;;;;;;;5.50;100.00;99880.49;1724380;80;21562;-64
2022/11/05 01:35:52;;;;;;;13.32;8.13;;;;;;;5.52;100.00;99878.72;1725587;80;21693;-64
2022/11/05 01:38:20;;;;;;;10.75;8.38;;;;;;;5.55;100.00;99878.67;1716062;80;21744;-63
2022/11/05 01:40:47;;;;;;;9.57;8.33;;;;;;;5.52;100.00;99883.93;1721000;80;21526;-63
2022/11/05 01:43:18;;;;;;;9.25;8.18;;;;;;;5.56;100.00;99883.87;1734119;80;21671;-64
2022/11/05 01:45:49;;;;;;;9.98;8.73;;;;;;;5.56;100.00;99876.04;1711399;80;21542;-63
2022/11/05 01:48:19;;;;;;;10.48;9.13;;;;;;;5.56;100.00;99877.80;1687643;82;21531;-63
2022/11/05 01:50:57;;;;;;;13.22;9.18;;;;;;;5.54;100.00;99875.21;1711140;80;21861;-63
2022/11/05 01:53:41;;;;;;;9.83;8.85;;;;;;;5.56;100.00;99877.34;1676396;84;21518;-65
2022/11/05 01:56:25;;;;;;;19.45;10.03;;;;;;;5.50;100.00;99872.67;1723728;80;20947;-63
2022/11/05 01:58:59;;;;;;;9.88;8.58;;;;;;;5.45;100.00;99876.68;1727959;80;21431;-64
2022/11/05 02:01:27;;;;;;;9.45;8.55;;;;;;;5.38;100.00;99878.52;1719854;81;21602;-67
2022/11/05 02:03:58;;;;;;;10.58;8.68;;;;;;;5.34;100.00;99878.16;1713599;81;21743;-70
2022/11/05 02:06:25;;;;;;;9.65;8.40;;;;;;;5.29;100.00;99885.66;1717971;80;21549;-65
2022/11/05 02:09:15;;;;;;;9.40;8.43;;;;;;;5.25;100.00;99883.12;1727238;80;21419;-65
2022/11/05 02:11:43;;;;;;;11.95;8.58;;;;;;;5.23;100.00;99882.70;1720399;81;21601;-65
2022/11/05 02:14:09;;;;;;;10.13;8.50;;;;;;;5.20;100.00;99877.56;1712058;80;21519;-65
2022/11/05 02:17:07;;;;;;;10.78;8.50;;;;;;;5.19;100.00;99885.80;1723439;80;21725;-65
2022/11/05 02:20:24;;;;;;;9.38;8.45;;;;;;;5.16;100.00;99885.88;1680823;84;21612;-65
2022/11/05 02:23:14;;;;;;;10.18;8.50;;;;;;;5.15;100.00;99891.96;1639342;85;21470;-65
2022/11/05 02:26:05;;;;;;;10.03;8.40;;;;;;;5.13;100.00;99898.10;1633833;86;21870;-64
2022/11/05 02:29:12;;;;;;;11.73;9.33;;;;;;;5.12;100.00;99894.61;1666449;83;21463;-64
2022/11/05 02:31:53;;;;;;;9.78;8.88;;;;;;;5.11;100.00;99892.05;1666289;83;21939;-65
2022/11/05 02:34:34;;;;;;;11.33;9.33;;;;;;;5.16;100.00;99880.66;1670777;83;21552;-64
2022/11/05 02:37:34;;;;;;;16.75;9.90;;;;;;;5.21;100.00;99871.45;1662176;84;21013;-65
2022/11/05 02:40:18;;;;;;;14.15;10.35;;;;;;;5.27;100.00;99868.73;1671028;83;21541;-65
2022/11/05 02:43:15;;;;;;;10.98;9.78;;;;;;;5.32;100.00;99865.60;1668133;85;21527;-66
2022/11/05 02:46:02;;;;;;;10.15;8.13;;;;;;;5.38;100.00;99885.05;1670378;83;21924;-66
2022/11/05 02:48:36;;;;;;;9.08;8.20;;;;;;;5.49;100.00;99891.83;1668146;85;21439;-66
2022/11/05 02:51:08;;;;;;;8.55;7.67;;;;;;;5.53;100.00;99902.63;1670988;83;20966;-66
2022/11/05 02:53:55;;;;;;;12.53;8.65;;;;;;;5.52;100.00;99918.72;1668412;83;21557;-67
2022/11/05 02:56:28;;;;;;;;;;;;;;;5.54;100.00;99923.88;1672732;84;21549;-65
2022/11/05 02:58:55;;;;;;;15.05;8.88;;;;;;;5.47;100.00;99929.67;1651655;84;20794;-66
2022/11/05 03:01:21;;;;;;;8.83;8.03;;;;;;;5.46;100.00;99935.34;1668355;84;21549;-66
2022/11/05 03:03:57;;;;;;;8.75;7.85;;;;;;;5.45;100.00;99942.73;1670310;84;21408;-66
2022/11/05 03:06:55;;;;;;;10.72;7.95;;;;;;;5.44;100.00;99932.31;1666456;84;21454;-66
2022/11/05 03:09:49;;;;;;;9.58;7.78;;;;;;;5.46;100.00;99922.72;1668188;83;21065;-65
2022/11/05 03:12:33;;;;;;;31.62;7.80;;;;;;;5.52;100.00;99926.97;1668487;83;21986;-65
2022/11/05 03:15:20;;;;;;;20.40;7.25;;;;;;;5.54;100.00;99919.55;1668604;83;21444;-67
2022/11/05 03:18:24;;;;;;;12.82;6.12;;;;;;;5.62;100.00;99922.88;1671120;83;25598;-65
2022/11/05 03:21:11;;;;;;;26.12;6.90;;;;;;;5.69;100.00;99930.58;1635960;85;21611;-65
2022/11/05 03:24:01;;;;;;;20.15;7.28;;;;;;;5.74;100.00;99940.49;1644140;86;23524;-65
2022/11/05 03:26:31;;;;;;;30.20;8.05;;;;;;;5.72;100.00;99950.95;1642738;85;21858;-65
2022/11/05 03:29:18;;;;;;;7.05;6.45;;;;;;;5.69;100.00;99954.94;1636389;85;21466;-65
2022/11/05 03:31:45;;;;;;;;;;;;;;;5.69;100.00;99941.89;1639211;85;21568;-66
2022/11/05 03:34:13;;;;;;;14.83;6.00;;;;;;;5.69;100.00;99940.59;1639718;86;20502;-65
2022/11/05 03:36:43;;;;;;;6.33;5.58;;;;;;;5.69;100.00;99941.02;1637387;85;21516;-65
2022/11/05 03:39:15;;;;;;;6.10;5.37;;;;;;;5.73;100.00;99943.56;1642977;85;21822;-65
2022/11/05 03:41:43;;;;;;;6.95;6.22;;;;;;;5.75;100.00;99944.39;1643284;84;21545;-63
2022/11/05 03:44:11;;;;;;;8.18;7.42;;;;;;;5.78;100.00;99944.34;1638208;85;21627;-64
2022/11/05 03:46:48;;;;;;;8.83;7.60;;;;;;;5.75;100.00;99948.30;1645393;85;21557;-63
2022/11/05 03:49:20;;;;;;;7.90;7.15;;;;;;;5.74;100.00;99950.48;1649098;85;21579;-64
2022/11/05 03:52:09;;;;;;;10.63;7.33;;;;;;;5.71;100.00;99962.72;1644254;85;22281;-64
2022/11/05 03:54:36;;;;;;;35.10;8.00;;;;;;;5.65;100.00;99958.05;1645589;85;21544;-64
2022/11/05 03:57:13;;;;;;;26.50;8.05;;;;;;;5.60;100.00;99952.49;1649047;84;21075;-64
2022/11/05 03:59:44;;;;;;;10.40;7.87;;;;;;;5.64;100.00;99956.31;1643247;85;22247;-63
2022/11/05 04:02:12;;;;;;;13.10;7.35;;;;;;;5.63;100.00;99951.11;1645681;85;21512;-63
2022/11/05 04:04:40;;;;;;;7.90;7.10;;;;;;;5.63;100.00;99946.78;1655759;85;21458;-63
2022/11/05 04:15:28;;;;;;;21.55;7.35;;;;;;;5.76;100.00;99946.55;1644346;85;21631;-62
2022/11/05 04:17:57;;;;;;;11.68;6.60;;;;;;;5.79;100.00;99940.83;1640225;85;22036;-63
2022/11/05 04:25:56;;;;;;;9.98;6.53;;;;;;;5.89;100.00;99945.88;1639262;85;21635;-64
2022/11/05 04:30:17;;;;;;;10.05;6.58;;;;;;;5.97;100.00;99955.75;1643744;85;21667;-64
2022/11/05 04:30:53;;;;;;;15.70;6.22;;;;;;;6.01;100.00;99954.83;1634101;85;21560;-63
2022/11/05 04:33:20;;;;;;;14.18;6.28;;;;;;;6.05;100.00;99960.41;1641743;85;21443;-64
2022/11/05 04:35:47;;;;;;;6.10;5.50;;;;;;;6.07;100.00;99966.91;1651438;85;21609;-64
2022/11/05 04:38:18;;;;;;;6.25;5.10;;;;;;;6.13;100.00;99971.55;1643723;84;21588;-64
2022/11/05 04:40:46;;;;;;;26.95;6.58;;;;;;;6.16;100.00;99979.33;1647903;85;21040;-64
2022/11/05 04:43:17;;;;;;;6.67;5.53;;;;;;;6.18;100.00;99987.98;1638593;85;21845;-65
2022/11/05 04:45:44;;;;;;;31.77;6.87;;;;;;;6.19;100.00;99980.55;1657244;85;21556;-64
2022/11/05 04:48:11;;;;;;;6.87;6.17;;;;;;;6.22;100.00;99990.09;1640305;85;21482;-65
2022/11/05 04:50:38;;;;;;;7.25;6.22;;;;;;;6.22;100.00;99991.41;1647698;85;21532;-64
2022/11/05 04:53:05;;;;;;;9.28;6.25;;;;;;;6.23;100.00;99998.33;1641359;85;21429;-64
2022/11/05 04:55:32;;;;;;;17.27;6.90;;;;;;;6.24;100.00;99998.77;1655066;85;21544;-64
2022/11/05 04:57:59;;;;;;;7.22;6.40;;;;;;;6.26;100.00;100002.20;1644922;85;21575;-64
2022/11/05 05:00:25;;;;;;;10.43;6.50;;;;;;;6.26;100.00;99999.59;1637917;85;21021;-64
2022/11/05 05:02:52;;;;;;;26.00;6.65;;;;;;;6.24;100.00;100000.92;1638665;84;21454;-65
2022/11/05 05:05:21;;;;;;;20.85;7.25;;;;;;;6.27;100.00;100011.73;1635503;85;21623;-64
2022/11/05 05:07:47;;;;;;;10.23;5.58;;;;;;;6.27;100.00;100007.82;1641303;85;21899;-64
2022/11/05 05:10:14;;;;;;;6.78;6.17;;;;;;;6.32;100.00;100012.97;1640911;85;21559;-64
2022/11/05 05:12:40;;;;;;;9.95;6.17;;;;;;;6.34;100.00;100019.87;1644744;85;21438;-64
2022/11/05 05:15:08;;;;;;;10.32;6.40;;;;;;;6.34;100.00;100018.57;1644808;85;21594;-64
2022/11/05 05:17:34;;;;;;;7.50;6.35;;;;;;;6.41;100.00;100012.34;1642123;85;21553;-64
2022/11/05 05:22:53;;;;;;;18.45;5.85;;;;;;;6.42;100.00;100012.77;1671441;83;21507;-64
2022/11/05 05:25:20;;;;;;;5.78;5.33;;;;;;;6.45;100.00;100010.53;1678320;83;21427;-65
2022/11/05 05:27:48;;;;;;;10.25;5.92;;;;;;;6.46;100.00;100012.27;1677248;83;21558;-65
2022/11/05 05:30:15;;;;;;;12.53;5.92;;;;;;;6.48;100.00;100013.09;1678249;84;21497;-64
2022/11/05 05:32:43;;;;;;;16.90;5.75;;;;;;;6.52;100.00;100012.59;1681204;83;21526;-64
2022/11/05 05:35:10;;;;;;;6.60;5.60;;;;;;;6.53;100.00;100012.53;1679588;83;21499;-70
2022/11/05 05:37:37;;;;;;;5.40;4.90;;;;;;;6.51;100.00;100003.87;1678222;83;21882;-69
2022/11/05 05:40:04;;;;;;;7.87;5.53;;;;;;;6.55;100.00;100006.83;1682271;84;21503;-70
2022/11/05 05:42:32;;;;;;;6.92;5.85;;;;;;;6.62;100.00;100010.19;1676602;83;21084;-69
2022/11/05 05:45:00;;;;;;;6.45;5.58;;;;;;;6.67;100.00;100011.38;1678112;84;21818;-69
2022/11/05 05:47:26;;;;;;;16.00;5.90;;;;;;;6.72;100.00;100014.77;1678604;84;21544;-69
2022/11/05 05:49:53;;;;;;;8.83;5.35;;;;;;;6.75;100.00;100020.80;1675991;83;21474;-69
2022/11/05 05:52:19;;;;;;;7.72;6.03;;;;;;;6.81;100.00;100023.73;1680053;83;21676;-69
2022/11/05 05:54:45;;;;;;;7.37;5.80;;;;;;;6.86;100.00;100028.42;1678478;84;21466;-69
2022/11/05 05:57:12;;;;;;;6.05;5.50;;;;;;;6.93;100.00;100030.44;1680103;83;21584;-69
2022/11/05 05:59:39;;;;;;;12.18;6.28;;;;;;;6.99;100.00;100023.79;1677654;84;21505;-69
2022/11/05 06:02:05;;;;;;;6.42;5.83;;;;;;;7.03;100.00;100022.82;1680255;84;21558;-69
2022/11/05 10:10:02;;;;;;;21.77;17.40;;;;;;;6.63;100.00;100217.89;1813983;76;26180;-65
2022/11/05 10:12:37;;;;;;;22.52;15.95;;;;;;;7.10;100.00;100233.61;1730319;80;21622;-63
2022/11/05 10:15:25;;;;;;;19.12;15.40;;;;;;;7.30;100.00;100229.27;1771347;78;21470;-62
2022/11/05 10:22:07;;;;;;;17.85;13.35;;;;;;;7.65;100.00;100211.98;1737609;80;21577;-60
2022/11/05 10:24:33;;;;;;;20.52;14.18;;;;;;;7.83;100.00;100199.38;1749299;79;21565;-63
2022/11/05 10:27:01;;;;;;;13.48;12.00;;;;;;;7.94;100.00;100198.69;1801499;77;21555;-63
2022/11/05 10:29:32;;;;;;;16.62;12.40;;;;;;;8.04;100.00;100188.85;1801362;77;21909;-63
2022/11/05 10:32:00;;;;;;;14.65;12.65;;;;;;;8.13;100.00;100189.48;1734076;79;21721;-61
2022/11/05 10:34:31;;;;;;;13.35;11.95;;;;;;;8.22;100.00;100188.42;1768962;79;21545;-64
2022/11/05 10:36:58;;;;;;;16.93;13.28;;;;;;;8.30;100.00;100186.92;1760648;79;22071;-64
2022/11/05 10:39:26;;;;;;;18.70;12.03;;;;;;;8.39;100.00;100188.00;1772164;80;21521;-63
2022/11/05 10:42:33;;;;;;;15.30;12.68;;;;;;;8.43;100.00;100190.13;1741501;80;21959;-64
2022/11/05 10:45:38;;;;;;;14.83;12.93;;;;;;;8.47;100.00;100192.62;1738038;80;21899;-61
2022/11/05 10:48:28;;;;;;;15.23;12.35;;;;;;;8.51;100.00;100186.85;1735877;79;21568;-64
2022/11/05 10:50:56;;;;;;;14.98;12.80;;;;;;;8.53;100.00;100188.98;1741213;80;21557;-64
2022/11/05 10:53:30;;;;;;;14.28;12.30;;;;;;;8.56;100.00;100190.22;1741022;80;21498;-63
2022/11/05 10:56:00;;;;;;;14.05;12.35;;;;;;;8.61;100.00;100185.73;1761963;79;21900;-63
2022/11/05 10:58:30;;;;;;;15.75;13.08;;;;;;;8.65;100.00;100186.52;1800126;77;21765;-64
2022/11/05 11:01:09;;;;;;;14.93;13.30;;;;;;;8.71;100.00;100177.17;1798916;77;21138;-62
2022/11/05 11:03:50;;;;;;;15.05;12.80;;;;;;;8.74;100.00;100166.61;1797569;77;21583;-66
2022/11/05 11:06:28;;;;;;;15.55;12.80;;;;;;;8.75;100.00;100167.01;1803123;77;21595;-64
2022/11/05 11:08:58;;;;;;;15.58;13.13;;;;;;;8.79;100.00;100166.02;1802190;77;21781;-65
2022/11/05 11:11:36;;;;;;;19.70;14.43;;;;;;;8.81;100.00;100165.52;1736030;79;21533;-65
2022/11/05 11:14:18;;;;;;;17.48;13.05;;;;;;;8.84;100.00;100168.53;1767297;79;21029;-64
2022/11/05 11:16:47;;;;;;;15.78;13.38;;;;;;;8.89;100.00;100175.80;1759581;80;21599;-66
2022/11/05 11:19:33;;;;;;;14.90;12.85;;;;;;;8.92;100.00;100182.28;1760123;80;21502;-67
2022/11/05 11:22:09;;;;;;;16.35;13.00;;;;;;;8.95;100.00;100175.19;1762794;79;26499;-67
2022/11/05 11:24:46;;;;;;;17.87;14.30;;;;;;;8.96;100.00;100175.58;1798474;77;21565;-67
2022/11/05 11:27:27;;;;;;;17.77;13.45;;;;;;;8.96;100.00;100180.83;1799407;77;21064;-66
2022/11/05 11:29:58;;;;;;;16.75;13.90;;;;;;;8.94;100.00;100181.78;1799281;77;21033;-65
2022/11/05 11:32:35;;;;;;;17.75;12.30;;;;;;;8.92;100.00;100180.51;1764998;78;21485;-64
2022/11/05 11:35:02;;;;;;;17.07;13.80;;;;;;;8.91;100.00;100189.30;1800607;77;22418;-64
2022/11/05 11:37:34;;;;;;;16.57;12.90;;;;;;;8.90;100.00;100191.95;1758100;78;21621;-63
2022/11/05 11:40:16;;;;;;;15.10;13.15;;;;;;;8.89;100.00;100190.22;1789487;77;21031;-65
2022/11/05 11:42:52;;;;;;;16.07;12.70;;;;;;;8.89;100.00;100191.53;1801189;77;21607;-63
2022/11/05 11:45:38;;;;;;;16.93;12.58;;;;;;;8.87;100.00;100190.29;1793787;77;21545;-63
2022/11/05 11:48:06;;;;;;;18.05;13.68;;;;;;;8.88;100.00;100188.52;1800311;77;21584;-63
2022/11/05 11:50:36;;;;;;;;;;;;;;;8.91;100.00;100191.92;1796602;77;21627;-61
2022/11/05 11:53:28;;;;;;;14.60;11.22;;;;;;;8.86;100.00;100184.62;1797415;77;20466;-61
2022/11/05 11:56:19;;;;;;;15.40;12.15;;;;;;;8.86;100.00;100176.75;1762309;80;21549;-62
2022/11/05 11:58:50;;;;;;;14.87;11.65;;;;;;;8.87;100.00;100181.11;1800385;77;21561;-64
2022/11/05 12:02:15;;;;;;;12.40;11.08;;;;;;;8.87;100.00;100183.73;1799214;77;21814;-62
2022/11/05 12:05:06;;;;;;;15.25;11.57;;;;;;;8.88;100.00;100182.81;1802018;77;21032;-62
2022/11/05 12:07:58;;;;;;;16.50;11.70;;;;;;;8.83;100.00;100181.22;1782604;77;21573;-65
2022/11/05 12:10:54;;;;;;;13.95;11.57;;;;;;;8.83;100.00;100175.52;1793984;77;21533;-66
2022/11/05 12:13:28;;;;;;;15.70;11.83;;;;;;;8.86;100.00;100170.20;1763089;79;21588;-65
2022/11/05 12:16:05;;;;;;;14.95;11.90;;;;;;;8.87;100.00;100174.98;1760498;80;21733;-66
2022/11/05 12:19:15;;;;;;;15.28;12.23;;;;;;;8.86;100.00;100171.97;1798271;77;21480;-65
2022/11/05 12:22:24;;;;;;;14.38;11.50;;;;;;;8.85;100.00;100177.64;1764487;79;21029;-65
2022/11/05 12:25:27;;;;;;;16.32;12.60;;;;;;;8.79;100.00;100183.06;1765359;79;21509;-64
2022/11/05 12:28:18;;;;;;;15.10;12.23;;;;;;;8.75;100.00;100184.90;1737962;80;21509;-64
2022/11/05 12:31:03;;;;;;;13.48;11.50;;;;;;;8.73;100.00;100191.09;1742354;80;21846;-64
2022/11/05 12:33:41;;;;;;;14.70;12.28;;;;;;;8.75;100.00;100189.29;1736663;80;21534;-64
2022/11/05 12:36:25;;;;;;;13.53;11.68;;;;;;;8.75;100.00;100190.60;1800770;77;21081;-65
2022/11/05 12:39:03;;;;;;;13.65;11.90;;;;;;;8.76;100.00;100198.44;1784090;77;21509;-67
2022/11/05 12:41:35;;;;;;;18.85;11.95;;;;;;;8.77;100.00;100203.22;1762743;79;21565;-64
2022/11/05 12:44:58;;;;;;;14.95;12.53;;;;;;;8.80;100.00;100210.13;1726428;80;21872;-64
2022/11/05 12:47:40;;;;;;;18.67;13.13;;;;;;;8.80;100.00;100209.70;1770812;80;21566;-63
2022/11/05 12:50:18;;;;;;;19.48;13.53;;;;;;;8.75;100.00;100207.19;1741700;80;21626;-65
2022/11/05 12:53:22;;;;;;;14.33;12.18;;;;;;;8.76;100.00;100206.76;1742231;80;21105;-65
2022/11/05 12:55:49;;;;;;;13.68;10.95;;;;;;;8.75;100.00;100212.43;1742070;80;21549;-67
2022/11/05 12:58:21;;;;;;;14.43;11.83;;;;;;;8.74;100.00;100225.61;1740533;80;22434;-65
2022/11/05 13:00:53;;;;;;;17.77;12.65;;;;;;;8.75;100.00;100224.23;1801591;77;21672;-65
2022/11/05 13:03:42;;;;;;;14.98;11.63;;;;;;;8.75;100.00;100221.61;1739920;80;21517;-65
2022/11/05 13:06:21;;;;;;;15.63;12.53;;;;;;;8.78;100.00;100219.38;1727552;81;21542;-64
2022/11/05 13:09:05;;;;;;;18.87;13.00;;;;;;;8.76;100.00;100225.11;1799794;77;21608;-65
2022/11/05 13:11:39;;;;;;;14.85;11.15;;;;;;;8.75;100.00;100224.23;1785455;78;21804;-65
2022/11/05 13:14:28;;;;;;;18.20;12.30;;;;;;;8.73;100.00;100228.66;1785363;77;21518;-66
2022/11/05 13:17:06;;;;;;;13.88;11.35;;;;;;;8.71;100.00;100230.45;1792923;77;21599;-64
2022/11/05 13:20:06;;;;;;;15.72;12.58;;;;;;;8.73;100.00;100236.52;1748859;76;21502;-64
2022/11/05 13:22:41;;;;;;;15.68;12.30;;;;;;;8.73;100.00;100240.45;1800736;77;21588;-64
2022/11/05 13:25:29;;;;;;;16.15;11.90;;;;;;;8.74;100.00;100240.03;1763561;80;22056;-65
2022/11/05 13:28:45;;;;;;;15.32;12.20;;;;;;;8.70;100.00;100239.67;1764681;79;21564;-66
2022/11/05 13:31:17;;;;;;;17.33;12.33;;;;;;;8.68;100.00;100247.59;1790321;77;21542;-67
2022/11/05 13:33:47;;;;;;;15.58;11.65;;;;;;;8.64;100.00;100247.70;1798170;78;21788;-64
2022/11/05 13:39:18;;;;;;;17.60;12.53;;;;;;;8.66;100.00;100259.85;1805669;78;21720;-64
2022/11/05 13:42:32;;;;;;;16.25;12.18;;;;;;;8.66;100.00;100266.86;1799453;78;21414;-64
2022/11/05 13:45:38;;;;;;;16.75;12.15;;;;;;;8.68;100.00;100275.55;1787962;77;21552;-65
2022/11/05 13:48:41;;;;;;;15.63;12.65;;;;;;;8.66;100.00;100278.20;1809574;78;21525;-65
2022/11/05 13:51:16;;;;;;;15.32;11.90;;;;;;;8.67;100.00;100283.02;1760730;79;21497;-65
2022/11/05 13:53:55;;;;;;;20.45;12.33;;;;;;;8.67;100.00;100286.49;1771366;79;23307;-65
2022/11/05 14:40:27;;;;;;;20.97;14.38;;;;;;;6.32;100.00;100357.27;1833145;75;27408;-65
2022/11/05 14:42:57;;;;;;;20.27;13.43;;;;;;;6.60;100.00;100367.33;1730389;79;21684;-63
2022/11/05 14:45:31;;;;;;;16.65;12.45;;;;;;;6.80;100.00;100370.95;1772696;79;22340;-63
2022/11/05 14:48:06;;;;;;;16.27;12.73;;;;;;;6.90;100.00;100363.38;1794635;78;21442;-62
2022/11/05 14:50:38;;;;;;;15.85;12.00;;;;;;;6.99;100.00;100366.29;1800535;78;21421;-62
2022/11/05 14:53:25;;;;;;;15.75;11.45;;;;;;;7.16;100.00;100368.63;1794233;78;21528;-61
2022/11/05 14:56:12;;;;;;;17.32;11.40;;;;;;;7.27;100.00;100365.38;1793461;78;21545;-62
2022/11/05 14:58:40;;;;;;;19.02;12.50;;;;;;;7.38;100.00;100361.23;1761389;78;21933;-63
2022/11/05 15:01:16;;;;;;;14.78;11.75;;;;;;;7.45;100.00;100353.70;1778798;80;21524;-66
2022/11/05 15:04:00;;;;;;;13.60;11.45;;;;;;;7.54;100.00;100350.05;1801464;78;21532;-68
2022/11/05 15:06:33;;;;;;;17.40;12.33;;;;;;;7.59;100.00;100345.57;1786631;78;21550;-66
2022/11/05 15:09:20;;;;;;;17.05;11.70;;;;;;;7.63;100.00;100348.99;1765692;79;21486;-67
2022/11/05 15:12:01;;;;;;;15.15;11.60;;;;;;;7.65;100.00;100343.28;1741536;81;21576;-66
2022/11/05 15:14:39;;;;;;;14.83;11.80;;;;;;;7.69;100.00;100346.28;1739608;80;21483;-68
2022/11/05 15:17:25;;;;;;;18.27;12.20;;;;;;;7.72;100.00;100352.32;1737520;80;21581;-67
2022/11/05 15:19:52;;;;;;;16.23;12.53;;;;;;;7.75;100.00;100344.39;1758552;80;21483;-65
2022/11/05 15:22:33;;;;;;;15.90;12.10;;;;;;;7.80;100.00;100342.55;1761256;80;21112;-66
2022/11/05 15:25:02;;;;;;;16.07;12.15;;;;;;;7.83;100.00;100347.30;1758766;80;21871;-67
2022/11/05 15:28:11;;;;;;;17.70;12.37;;;;;;;7.84;100.00;100347.73;1807367;78;21033;-66
2022/11/05 15:30:38;;;;;;;15.00;11.93;;;;;;;7.85;100.00;100342.89;1745512;78;21009;-63
2022/11/05 15:33:20;;;;;;;14.23;11.53;;;;;;;7.80;100.00;100349.55;1741790;78;21513;-63
2022/11/05 15:35:46;;;;;;;18.32;12.28;;;;;;;7.80;100.00;100349.09;1746833;79;21012;-62
2022/11/05 15:38:32;;;;;;;17.07;12.95;;;;;;;7.80;100.00;100352.16;1779982;77;21880;-64
2022/11/05 15:41:13;;;;;;;17.02;12.45;;;;;;;7.79;100.00;100355.66;1765797;79;21507;-63
2022/11/05 15:43:44;;;;;;;15.75;12.13;;;;;;;7.75;100.00;100353.55;1767418;80;20997;-63
2022/11/05 15:46:23;;;;;;;15.35;11.75;;;;;;;7.73;100.00;100354.03;1758760;80;21434;-63
2022/11/05 15:48:56;;;;;;;18.50;12.33;;;;;;;7.76;100.00;100356.59;1737793;81;21575;-62
2022/11/05 15:51:24;;;;;;;19.98;13.38;;;;;;;7.77;100.00;100366.16;1746807;81;21786;-61
2022/11/05 15:53:56;;;;;;;18.73;12.88;;;;;;;7.76;100.00;100360.52;1762499;80;21446;-62
2022/11/05 15:56:39;;;;;;;18.57;12.93;;;;;;;7.76;100.00;100351.36;1805634;78;21096;-63
2022/11/05 15:59:17;;;;;;;16.73;12.95;;;;;;;7.71;100.00;100346.66;1769490;80;21490;-61
2022/11/05 16:02:00;;;;;;;18.87;13.00;;;;;;;7.70;100.00;100346.22;1791708;78;21626;-62
2022/11/05 16:04:29;;;;;;;19.05;13.18;;;;;;;7.67;100.00;100355.92;1758534;80;21823;-61
2022/11/05 16:07:00;;;;;;;18.98;12.68;;;;;;;7.66;100.00;100360.72;1772919;79;21022;-62
2022/11/05 16:09:29;;;;;;;20.75;13.62;;;;;;;7.66;100.00;100364.65;1808501;78;21482;-65
2022/11/05 16:12:22;;;;;;;18.57;13.60;;;;;;;7.63;100.00;100359.04;1800624;78;21607;-63
2022/11/05 16:15:09;;;;;;;16.93;12.95;;;;;;;7.60;100.00;100365.17;1804526;78;21560;-63
2022/11/05 16:17:53;;;;;;;18.20;14.05;;;;;;;7.56;100.00;100367.89;1803488;78;21901;-63
2022/11/05 16:20:28;;;;;;;19.02;13.68;;;;;;;7.57;100.00;100380.07;1800478;78;21576;-63
2022/11/05 16:22:58;;;;;;;18.27;12.25;;;;;;;7.57;100.00;100376.14;1804797;78;21477;-62
2022/11/05 16:25:39;;;;;;;18.52;12.73;;;;;;;7.58;100.00;100367.42;1800345;78;21532;-63
2022/11/05 16:28:27;;;;;;;18.17;13.03;;;;;;;7.60;100.00;100376.09;1767051;80;21550;-62
2022/11/05 16:31:03;;;;;;;19.82;14.23;;;;;;;7.59;100.00;100382.21;1800811;78;21572;-63
2022/11/05 16:33:40;;;;;;;17.35;12.58;;;;;;;7.58;100.00;100380.05;1770251;80;21028;-63
2022/11/05 16:36:08;;;;;;;18.07;14.13;;;;;;;7.57;100.00;100378.77;1761921;79;21553;-64
2022/11/05 16:38:34;;;;;;;20.10;14.60;;;;;;;7.57;100.00;100380.95;1736103;80;22013;-62
2022/11/05 16:41:01;;;;;;;19.32;14.75;;;;;;;7.57;100.00;100377.03;1762265;80;21415;-63
2022/11/05 16:43:28;;;;;;;22.70;14.97;;;;;;;7.56;100.00;100375.30;1758378;80;21873;-62
2022/11/05 16:45:58;;;;;;;18.80;14.00;;;;;;;7.55;100.00;100384.05;1776070;79;21785;-62
2022/11/05 16:48:25;;;;;;;19.82;13.40;;;;;;;7.57;100.00;100393.16;1765459;80;21581;-64
2022/11/05 16:50:52;;;;;;;18.10;14.05;;;;;;;7.54;100.00;100398.02;1757287;79;20953;-63
2022/11/05 16:53:18;;;;;;;19.25;13.65;;;;;;;7.54;100.00;100396.70;1758271;79;21525;-63
2022/11/05 16:55:46;;;;;;;22.77;15.00;;;;;;;7.57;100.00;100407.55;1770665;80;21985;-64
2022/11/05 16:58:22;;;;;;;20.15;14.68;;;;;;;7.58;100.00;100406.22;1802530;78;21601;-62
2022/11/05 17:00:52;;;;;;;21.68;15.28;;;;;;;7.60;100.00;100408.36;1788551;77;21458;-63
2022/11/05 17:03:19;;;;;;;22.00;14.45;;;;;;;7.60;100.00;100397.04;1791316;78;21060;-63
2022/11/05 17:05:48;;;;;;;23.70;15.30;;;;;;;7.59;100.00;100400.53;1808482;78;20954;-64
2022/11/05 17:08:14;;;;;;;22.20;14.90;;;;;;;7.59;100.00;100400.11;1751627;80;21827;-63
2022/11/05 17:10:41;;;;;;;24.27;16.05;;;;;;;7.60;100.00;100404.89;1771653;80;21600;-63
2022/11/05 17:13:14;;;;;;;18.10;13.93;;;;;;;7.58;100.00;100400.13;1761031;80;21665;-63
2022/11/05 17:15:44;;;;;;;23.18;15.53;;;;;;;7.58;100.00;100405.36;1764207;80;21045;-63
2022/11/05 17:18:12;;;;;;;21.97;15.23;;;;;;;7.56;100.00;100397.53;1804771;78;21604;-63
2022/11/05 17:20:42;;;;;;;20.62;14.40;;;;;;;7.58;100.00;100398.37;1768396;80;21854;-63
2022/11/05 17:23:16;;;;;;;20.82;14.98;;;;;;;7.60;100.00;100394.42;1811043;77;21529;-63
2022/11/05 17:25:49;;;;;;;23.70;15.00;;;;;;;7.60;100.00;100399.20;1815624;77;21504;-63
2022/11/05 17:28:17;;;;;;;20.05;14.10;;;;;;;7.60;100.00;100399.66;1759876;80;21013;-63
2022/11/05 17:30:44;;;;;;;20.13;14.77;;;;;;;7.56;100.00;100395.38;1761111;80;21568;-63
2022/11/05 17:33:12;;;;;;;23.45;15.25;;;;;;;7.56;100.00;100403.22;1753499;79;21916;-63